sensor_id;sensor_type;location;lat;lon;timestamp;pressure;altitude;pressure_sealevel;temperature;humidity
58769;BME280;44536;47.474;19.056;2023-03-15T00:00:25;99265.06;;;9.48;84.16
58769;BME280;44536;47.474;19.056;2023-03-15T00:03:27;99266.72;;;9.49;83.55
58769;BME280;44536;47.474;19.056;2023-03-15T00:06:31;99264.34;;;9.46;83.62
58769;BME280;44536;47.474;19.056;2023-03-15T00:09:37;99267.81;;;9.37;84.64
58769;BME280;44536;47.474;19.056;2023-03-15T00:12:39;99275.19;;;9.43;82.98
58769;BME280;44536;47.474;19.056;2023-03-15T00:15:46;99283.84;;;9.45;81.97
58769;BME280;44536;47.474;19.056;2023-03-15T00:18:48;99281.47;;;9.42;82.54
58769;BME280;44536;47.474;19.056;2023-03-15T00:21:51;99304.72;;;9.38;81.84
58769;BME280;44536;47.474;19.056;2023-03-15T00:24:53;99289.97;;;9.36;81.72
58769;BME280;44536;47.474;19.056;2023-03-15T00:27:56;99287.47;;;9.34;82.89
58769;BME280;44536;47.474;19.056;2023-03-15T00:31:21;99285.78;;;9.33;81.76
58769;BME280;44536;47.474;19.056;2023-03-15T00:34:24;99288.56;;;9.32;80.73
58769;BME280;44536;47.474;19.056;2023-03-15T00:37:27;99278.38;;;9.27;80.35
58769;BME280;44536;47.474;19.056;2023-03-15T00:40:29;99315.56;;;9.25;80.83
58769;BME280;44536;47.474;19.056;2023-03-15T00:43:32;99275.56;;;9.19;82.22
58769;BME280;44536;47.474;19.056;2023-03-15T00:46:35;99260.66;;;9.18;81.25
58769;BME280;44536;47.474;19.056;2023-03-15T00:49:38;99270.69;;;9.14;80.30
58769;BME280;44536;47.474;19.056;2023-03-15T00:52:41;99262.03;;;9.12;80.69
58769;BME280;44536;47.474;19.056;2023-03-15T00:55:43;99272.88;;;9.09;80.75
58769;BME280;44536;47.474;19.056;2023-03-15T00:58:46;99256.72;;;9.03;81.83
58769;BME280;44536;47.474;19.056;2023-03-15T01:01:48;99258.91;;;8.98;81.40
58769;BME280;44536;47.474;19.056;2023-03-15T01:04:52;99263.63;;;8.94;82.17
58769;BME280;44536;47.474;19.056;2023-03-15T01:07:54;99252.50;;;8.90;80.99
58769;BME280;44536;47.474;19.056;2023-03-15T01:11:01;99253.47;;;8.89;79.83
58769;BME280;44536;47.474;19.056;2023-03-15T01:14:04;99269.44;;;8.88;78.97
58769;BME280;44536;47.474;19.056;2023-03-15T01:17:09;99261.78;;;8.85;78.43
58769;BME280;44536;47.474;19.056;2023-03-15T01:20:13;99265.41;;;8.84;79.05
58769;BME280;44536;47.474;19.056;2023-03-15T01:23:16;99260.28;;;8.82;77.97
58769;BME280;44536;47.474;19.056;2023-03-15T01:26:21;99263.47;;;8.86;76.40
58769;BME280;44536;47.474;19.056;2023-03-15T01:29:24;99255.38;;;8.78;77.26
58769;BME280;44536;47.474;19.056;2023-03-15T01:32:26;99260.53;;;8.79;76.29
58769;BME280;44536;47.474;19.056;2023-03-15T01:35:29;99254.94;;;8.73;75.50
58769;BME280;44536;47.474;19.056;2023-03-15T01:38:33;99259.38;;;8.72;75.70
58769;BME280;44536;47.474;19.056;2023-03-15T01:41:36;99261.31;;;8.70;75.90
58769;BME280;44536;47.474;19.056;2023-03-15T01:45:48;99264.22;;;8.67;75.47
58769;BME280;44536;47.474;19.056;2023-03-15T01:48:44;99265.59;;;8.61;74.31
58769;BME280;44536;47.474;19.056;2023-03-15T01:52:09;99257.91;;;8.58;74.69
58769;BME280;44536;47.474;19.056;2023-03-15T01:55:17;99255.41;;;8.57;74.61
58769;BME280;44536;47.474;19.056;2023-03-15T01:58:27;99255.09;;;8.50;75.27
58769;BME280;44536;47.474;19.056;2023-03-15T02:01:31;99248.97;;;8.50;75.60
58769;BME280;44536;47.474;19.056;2023-03-15T02:04:41;99255.22;;;8.49;75.42
58769;BME280;44536;47.474;19.056;2023-03-15T02:07:49;99254.78;;;8.44;75.65
58769;BME280;44536;47.474;19.056;2023-03-15T02:10:55;99259.78;;;8.47;74.87
58769;BME280;44536;47.474;19.056;2023-03-15T02:14:01;99262.13;;;8.40;75.40
58769;BME280;44536;47.474;19.056;2023-03-15T02:17:05;99262.94;;;8.41;74.99
58769;BME280;44536;47.474;19.056;2023-03-15T02:23:32;99260.69;;;8.36;74.96
58769;BME280;44536;47.474;19.056;2023-03-15T02:26:55;99262.03;;;8.30;75.34
58769;BME280;44536;47.474;19.056;2023-03-15T02:29:59;99258.69;;;8.28;75.39
58769;BME280;44536;47.474;19.056;2023-03-15T02:33:08;99269.78;;;8.22;75.86
58769;BME280;44536;47.474;19.056;2023-03-15T02:39:21;99262.94;;;8.20;76.46
58769;BME280;44536;47.474;19.056;2023-03-15T02:42:25;99275.56;;;8.16;76.45
58769;BME280;44536;47.474;19.056;2023-03-15T02:45:31;99282.25;;;8.20;76.08
58769;BME280;44536;47.474;19.056;2023-03-15T02:48:36;99286.84;;;8.18;76.11
58769;BME280;44536;47.474;19.056;2023-03-15T02:51:39;99295.00;;;8.15;76.20
58769;BME280;44536;47.474;19.056;2023-03-15T02:54:41;99284.69;;;8.12;76.61
58769;BME280;44536;47.474;19.056;2023-03-15T02:57:44;99289.28;;;8.10;77.54
58769;BME280;44536;47.474;19.056;2023-03-15T03:00:47;99293.59;;;8.11;77.35
58769;BME280;44536;47.474;19.056;2023-03-15T03:03:49;99292.75;;;8.11;77.43
58769;BME280;44536;47.474;19.056;2023-03-15T03:06:53;99289.84;;;8.14;77.52
58769;BME280;44536;47.474;19.056;2023-03-15T03:09:56;99299.69;;;8.12;77.52
58769;BME280;44536;47.474;19.056;2023-03-15T03:12:59;99300.78;;;8.09;77.33
58769;BME280;44536;47.474;19.056;2023-03-15T03:16:02;99291.19;;;8.08;77.90
58769;BME280;44536;47.474;19.056;2023-03-15T03:19:05;99289.41;;;8.09;78.63
58769;BME280;44536;47.474;19.056;2023-03-15T03:22:08;99300.78;;;8.09;77.96
58769;BME280;44536;47.474;19.056;2023-03-15T03:25:11;99286.41;;;8.02;78.17
58769;BME280;44536;47.474;19.056;2023-03-15T03:28:14;99284.81;;;8.11;78.27
58769;BME280;44536;47.474;19.056;2023-03-15T03:31:18;99285.53;;;8.13;77.21
58769;BME280;44536;47.474;19.056;2023-03-15T03:34:22;99279.81;;;8.08;75.88
58769;BME280;44536;47.474;19.056;2023-03-15T03:37:25;99283.22;;;8.19;74.88
58769;BME280;44536;47.474;19.056;2023-03-15T03:40:27;99286.88;;;8.07;75.25
58769;BME280;44536;47.474;19.056;2023-03-15T03:43:30;99287.94;;;8.16;74.40
58769;BME280;44536;47.474;19.056;2023-03-15T03:46:33;99289.12;;;8.12;75.50
58769;BME280;44536;47.474;19.056;2023-03-15T03:49:36;99284.25;;;8.07;75.66
58769;BME280;44536;47.474;19.056;2023-03-15T03:52:38;99287.50;;;8.00;76.07
58769;BME280;44536;47.474;19.056;2023-03-15T03:55:41;99277.78;;;8.00;74.54
58769;BME280;44536;47.474;19.056;2023-03-15T03:58:43;99279.00;;;7.96;74.78
58769;BME280;44536;47.474;19.056;2023-03-15T04:01:46;99269.28;;;7.96;74.13
58769;BME280;44536;47.474;19.056;2023-03-15T04:04:49;99274.81;;;7.93;74.98
58769;BME280;44536;47.474;19.056;2023-03-15T04:07:52;99275.66;;;7.94;73.74
58769;BME280;44536;47.474;19.056;2023-03-15T04:10:56;99278.28;;;7.94;74.00
58769;BME280;44536;47.474;19.056;2023-03-15T04:13:59;99273.97;;;7.93;73.55
58769;BME280;44536;47.474;19.056;2023-03-15T04:17:02;99278.41;;;7.92;74.30
58769;BME280;44536;47.474;19.056;2023-03-15T04:20:05;99281.00;;;8.04;72.82
58769;BME280;44536;47.474;19.056;2023-03-15T04:23:13;99287.25;;;8.03;72.22
58769;BME280;44536;47.474;19.056;2023-03-15T04:26:16;99300.59;;;8.01;71.90
58769;BME280;44536;47.474;19.056;2023-03-15T04:29:19;99301.59;;;7.89;72.19
58769;BME280;44536;47.474;19.056;2023-03-15T04:32:23;99294.25;;;7.92;72.15
58769;BME280;44536;47.474;19.056;2023-03-15T04:35:29;99304.22;;;7.89;71.88
58769;BME280;44536;47.474;19.056;2023-03-15T04:38:32;99300.53;;;7.80;71.50
58769;BME280;44536;47.474;19.056;2023-03-15T04:41:35;99323.97;;;7.74;70.44
58769;BME280;44536;47.474;19.056;2023-03-15T04:44:40;99320.25;;;7.65;70.63
58769;BME280;44536;47.474;19.056;2023-03-15T04:47:42;99336.34;;;7.62;71.35
58769;BME280;44536;47.474;19.056;2023-03-15T04:50:46;99343.31;;;7.52;71.42
58769;BME280;44536;47.474;19.056;2023-03-15T04:53:49;99342.00;;;7.46;71.42
58769;BME280;44536;47.474;19.056;2023-03-15T04:56:52;99339.34;;;7.46;70.86
58769;BME280;44536;47.474;19.056;2023-03-15T04:59:55;99340.78;;;7.39;70.43
58769;BME280;44536;47.474;19.056;2023-03-15T05:02:58;99337.34;;;7.27;70.55
58769;BME280;44536;47.474;19.056;2023-03-15T05:06:01;99344.78;;;7.22;71.43
58769;BME280;44536;47.474;19.056;2023-03-15T05:09:09;99354.00;;;7.17;71.88
58769;BME280;44536;47.474;19.056;2023-03-15T05:12:19;99342.38;;;7.08;70.28
58769;BME280;44536;47.474;19.056;2023-03-15T05:15:22;99338.19;;;6.94;70.40
58769;BME280;44536;47.474;19.056;2023-03-15T05:18:25;99330.13;;;6.85;70.63
58769;BME280;44536;47.474;19.056;2023-03-15T05:21:31;99335.53;;;6.72;72.27
58769;BME280;44536;47.474;19.056;2023-03-15T05:24:34;99336.59;;;6.70;72.63
58769;BME280;44536;47.474;19.056;2023-03-15T05:27:40;99334.09;;;6.68;72.10
58769;BME280;44536;47.474;19.056;2023-03-15T05:30:42;99349.62;;;6.60;72.43
58769;BME280;44536;47.474;19.056;2023-03-15T05:33:45;99332.88;;;6.61;72.74
58769;BME280;44536;47.474;19.056;2023-03-15T05:36:50;99346.25;;;6.47;73.19
58769;BME280;44536;47.474;19.056;2023-03-15T05:39:52;99337.34;;;6.37;73.87
58769;BME280;44536;47.474;19.056;2023-03-15T05:42:55;99347.75;;;6.38;73.79
58769;BME280;44536;47.474;19.056;2023-03-15T05:45:58;99348.09;;;6.22;74.34
58769;BME280;44536;47.474;19.056;2023-03-15T05:49:01;99347.53;;;6.06;75.43
58769;BME280;44536;47.474;19.056;2023-03-15T05:52:03;99327.88;;;5.99;76.03
58769;BME280;44536;47.474;19.056;2023-03-15T05:55:06;99344.50;;;6.00;75.86
58769;BME280;44536;47.474;19.056;2023-03-15T05:58:09;99346.88;;;5.91;77.01
58769;BME280;44536;47.474;19.056;2023-03-15T06:01:11;99346.31;;;5.86;77.05
58769;BME280;44536;47.474;19.056;2023-03-15T06:04:15;99345.59;;;5.84;77.40
58769;BME280;44536;47.474;19.056;2023-03-15T06:07:18;99354.88;;;5.90;77.83
58769;BME280;44536;47.474;19.056;2023-03-15T06:10:22;99366.13;;;5.92;77.59
58769;BME280;44536;47.474;19.056;2023-03-15T06:13:25;99366.75;;;5.95;78.01
58769;BME280;44536;47.474;19.056;2023-03-15T06:16:28;99361.37;;;5.97;78.30
58769;BME280;44536;47.474;19.056;2023-03-15T06:19:31;99366.00;;;5.93;77.66
58769;BME280;44536;47.474;19.056;2023-03-15T06:22:34;99374.75;;;5.81;78.63
58769;BME280;44536;47.474;19.056;2023-03-15T06:25:39;99383.25;;;5.85;78.54
58769;BME280;44536;47.474;19.056;2023-03-15T06:28:42;99381.91;;;5.92;78.59
58769;BME280;44536;47.474;19.056;2023-03-15T06:31:44;99387.47;;;6.00;78.21
58769;BME280;44536;47.474;19.056;2023-03-15T06:34:51;99394.72;;;5.96;78.84
58769;BME280;44536;47.474;19.056;2023-03-15T06:37:54;99391.47;;;5.93;78.94
58769;BME280;44536;47.474;19.056;2023-03-15T06:40:57;99395.78;;;5.94;79.04
58769;BME280;44536;47.474;19.056;2023-03-15T06:44:02;99402.94;;;5.92;78.50
58769;BME280;44536;47.474;19.056;2023-03-15T06:47:04;99400.31;;;5.79;79.05
58769;BME280;44536;47.474;19.056;2023-03-15T06:50:08;99402.00;;;5.80;78.33
58769;BME280;44536;47.474;19.056;2023-03-15T06:53:10;99397.59;;;5.81;78.54
58769;BME280;44536;47.474;19.056;2023-03-15T06:56:13;99413.16;;;5.84;78.31
58769;BME280;44536;47.474;19.056;2023-03-15T06:59:16;99410.19;;;5.88;78.65
58769;BME280;44536;47.474;19.056;2023-03-15T07:02:18;99421.03;;;5.96;77.58
58769;BME280;44536;47.474;19.056;2023-03-15T07:05:22;99432.19;;;6.00;78.26
58769;BME280;44536;47.474;19.056;2023-03-15T07:08:24;99420.16;;;6.09;77.41
58769;BME280;44536;47.474;19.056;2023-03-15T07:11:27;99420.81;;;6.00;76.41
58769;BME280;44536;47.474;19.056;2023-03-15T07:14:29;99432.84;;;5.91;77.01
58769;BME280;44536;47.474;19.056;2023-03-15T07:17:32;99433.12;;;5.99;77.23
58769;BME280;44536;47.474;19.056;2023-03-15T07:20:35;99437.16;;;5.92;76.33
58769;BME280;44536;47.474;19.056;2023-03-15T07:23:39;99438.84;;;5.93;76.34
58769;BME280;44536;47.474;19.056;2023-03-15T07:26:41;99449.03;;;5.97;76.22
58769;BME280;44536;47.474;19.056;2023-03-15T07:29:43;99454.31;;;5.97;75.89
58769;BME280;44536;47.474;19.056;2023-03-15T07:32:47;99456.19;;;5.83;75.67
58769;BME280;44536;47.474;19.056;2023-03-15T07:35:51;99456.09;;;5.97;75.53
58769;BME280;44536;47.474;19.056;2023-03-15T07:38:54;99451.75;;;6.09;75.99
58769;BME280;44536;47.474;19.056;2023-03-15T07:41:58;99463.34;;;6.06;74.80
58769;BME280;44536;47.474;19.056;2023-03-15T07:45:05;99467.44;;;6.10;74.41
58769;BME280;44536;47.474;19.056;2023-03-15T07:48:07;99467.97;;;6.03;74.20
58769;BME280;44536;47.474;19.056;2023-03-15T07:51:10;99465.22;;;6.04;74.42
58769;BME280;44536;47.474;19.056;2023-03-15T07:54:13;99470.06;;;6.10;73.96
58769;BME280;44536;47.474;19.056;2023-03-15T07:57:15;99467.66;;;6.07;73.53
58769;BME280;44536;47.474;19.056;2023-03-15T08:00:18;99464.56;;;6.13;72.97
58769;BME280;44536;47.474;19.056;2023-03-15T08:03:22;99459.09;;;6.16;72.56
58769;BME280;44536;47.474;19.056;2023-03-15T08:06:25;99468.44;;;6.20;72.47
58769;BME280;44536;47.474;19.056;2023-03-15T08:09:27;99473.34;;;6.25;71.74
58769;BME280;44536;47.474;19.056;2023-03-15T08:12:30;99473.50;;;6.23;71.32
58769;BME280;44536;47.474;19.056;2023-03-15T08:15:32;99476.22;;;6.22;71.09
58769;BME280;44536;47.474;19.056;2023-03-15T08:18:34;99474.44;;;6.22;70.57
58769;BME280;44536;47.474;19.056;2023-03-15T08:21:37;99475.44;;;6.09;70.33
58769;BME280;44536;47.474;19.056;2023-03-15T08:24:39;99488.69;;;6.07;69.30
58769;BME280;44536;47.474;19.056;2023-03-15T08:27:42;99478.62;;;6.25;69.04
58769;BME280;44536;47.474;19.056;2023-03-15T08:30:44;99493.72;;;6.23;68.64
58769;BME280;44536;47.474;19.056;2023-03-15T08:33:47;99491.19;;;6.21;68.87
58769;BME280;44536;47.474;19.056;2023-03-15T08:36:49;99482.66;;;6.18;69.04
58769;BME280;44536;47.474;19.056;2023-03-15T08:39:52;99501.72;;;6.21;67.93
58769;BME280;44536;47.474;19.056;2023-03-15T08:43:01;99500.97;;;6.19;67.07
58769;BME280;44536;47.474;19.056;2023-03-15T08:46:04;99512.00;;;6.24;66.67
58769;BME280;44536;47.474;19.056;2023-03-15T08:49:06;99509.88;;;6.29;65.86
58769;BME280;44536;47.474;19.056;2023-03-15T08:52:10;99524.31;;;6.24;65.55
58769;BME280;44536;47.474;19.056;2023-03-15T08:55:12;99531.66;;;6.31;65.99
58769;BME280;44536;47.474;19.056;2023-03-15T08:58:15;99531.53;;;6.46;65.38
58769;BME280;44536;47.474;19.056;2023-03-15T09:01:18;99536.16;;;6.42;64.39
58769;BME280;44536;47.474;19.056;2023-03-15T09:04:20;99557.38;;;6.28;64.17
58769;BME280;44536;47.474;19.056;2023-03-15T09:07:22;99566.00;;;6.30;64.78
58769;BME280;44536;47.474;19.056;2023-03-15T09:10:25;99566.97;;;6.29;63.89
58769;BME280;44536;47.474;19.056;2023-03-15T09:13:27;99582.87;;;6.27;63.44
58769;BME280;44536;47.474;19.056;2023-03-15T09:16:30;99589.59;;;6.31;63.73
58769;BME280;44536;47.474;19.056;2023-03-15T09:19:32;99593.38;;;6.27;63.34
58769;BME280;44536;47.474;19.056;2023-03-15T09:22:35;99598.84;;;6.37;63.43
58769;BME280;44536;47.474;19.056;2023-03-15T09:25:40;99615.81;;;6.33;63.41
58769;BME280;44536;47.474;19.056;2023-03-15T09:28:43;99606.59;;;6.15;63.61
58769;BME280;44536;47.474;19.056;2023-03-15T09:31:45;99610.28;;;6.12;64.05
58769;BME280;44536;47.474;19.056;2023-03-15T09:34:48;99618.03;;;6.26;63.82
58769;BME280;44536;47.474;19.056;2023-03-15T09:37:50;99622.06;;;6.19;64.31
58769;BME280;44536;47.474;19.056;2023-03-15T09:40:57;99638.66;;;6.32;63.23
58769;BME280;44536;47.474;19.056;2023-03-15T09:50:24;99647.97;;;6.00;63.38
58769;BME280;44536;47.474;19.056;2023-03-15T09:53:33;99653.75;;;6.05;63.17
58769;BME280;44536;47.474;19.056;2023-03-15T09:59:47;99658.94;;;6.19;62.24
58769;BME280;44536;47.474;19.056;2023-03-15T10:02:58;99653.88;;;6.16;62.40
58769;BME280;44536;47.474;19.056;2023-03-15T10:09:20;99643.94;;;6.45;62.45
58769;BME280;44536;47.474;19.056;2023-03-15T10:12:30;99643.78;;;6.72;61.16
58769;BME280;44536;47.474;19.056;2023-03-15T10:25:14;99652.66;;;6.82;58.96
58769;BME280;44536;47.474;19.056;2023-03-15T10:28:28;99655.81;;;6.87;58.98
58769;BME280;44536;47.474;19.056;2023-03-15T10:31:37;99664.97;;;6.94;58.86
58769;BME280;44536;47.474;19.056;2023-03-15T10:34:48;99654.59;;;7.04;58.24
58769;BME280;44536;47.474;19.056;2023-03-15T10:37:52;99676.28;;;7.20;57.94
58769;BME280;44536;47.474;19.056;2023-03-15T10:40:57;99678.47;;;7.26;57.15
58769;BME280;44536;47.474;19.056;2023-03-15T10:44:03;99671.63;;;7.59;57.13
58769;BME280;44536;47.474;19.056;2023-03-15T10:47:11;99688.16;;;7.96;55.61
58769;BME280;44536;47.474;19.056;2023-03-15T10:50:31;99682.75;;;7.86;55.07
58769;BME280;44536;47.474;19.056;2023-03-15T10:53:33;99681.13;;;8.08;54.43
58769;BME280;44536;47.474;19.056;2023-03-15T10:56:54;99676.72;;;8.42;53.58
58769;BME280;44536;47.474;19.056;2023-03-15T11:00:00;99681.84;;;8.32;53.48
58769;BME280;44536;47.474;19.056;2023-03-15T11:03:23;99691.75;;;8.52;53.50
58769;BME280;44536;47.474;19.056;2023-03-15T11:06:27;99694.84;;;8.24;53.80
58769;BME280;44536;47.474;19.056;2023-03-15T11:09:59;99695.97;;;8.66;52.99
58769;BME280;44536;47.474;19.056;2023-03-15T11:13:20;99699.75;;;8.84;51.36
58769;BME280;44536;47.474;19.056;2023-03-15T11:16:24;99714.69;;;8.74;51.90
58769;BME280;44536;47.474;19.056;2023-03-15T11:19:29;99711.09;;;8.75;51.23
58769;BME280;44536;47.474;19.056;2023-03-15T11:22:32;99709.28;;;8.65;51.84
58769;BME280;44536;47.474;19.056;2023-03-15T11:25:34;99713.72;;;8.64;50.86
58769;BME280;44536;47.474;19.056;2023-03-15T11:28:40;99714.34;;;8.79;51.97
58769;BME280;44536;47.474;19.056;2023-03-15T11:31:47;99718.03;;;8.99;50.43
58769;BME280;44536;47.474;19.056;2023-03-15T11:35:05;99721.31;;;8.80;51.67
58769;BME280;44536;47.474;19.056;2023-03-15T11:38:15;99711.28;;;9.06;49.49
58769;BME280;44536;47.474;19.056;2023-03-15T11:41:27;99717.41;;;9.06;50.46
58769;BME280;44536;47.474;19.056;2023-03-15T11:44:37;99718.53;;;8.81;50.00
58769;BME280;44536;47.474;19.056;2023-03-15T11:47:57;99712.41;;;8.58;49.76
58769;BME280;44536;47.474;19.056;2023-03-15T11:51:00;99727.63;;;8.33;50.26
58769;BME280;44536;47.474;19.056;2023-03-15T11:54:19;99713.25;;;8.48;50.41
58769;BME280;44536;47.474;19.056;2023-03-15T11:57:41;99724.06;;;8.67;50.18
58769;BME280;44536;47.474;19.056;2023-03-15T12:00:50;99720.66;;;8.99;49.10
58769;BME280;44536;47.474;19.056;2023-03-15T12:07:37;99726.41;;;9.15;49.67
58769;BME280;44536;47.474;19.056;2023-03-15T12:10:45;99734.97;;;9.50;48.02
58769;BME280;44536;47.474;19.056;2023-03-15T12:20:49;99742.53;;;8.89;48.29
58769;BME280;44536;47.474;19.056;2023-03-15T12:24:12;99742.31;;;9.04;47.94
58769;BME280;44536;47.474;19.056;2023-03-15T12:27:18;99750.25;;;8.92;47.95
58769;BME280;44536;47.474;19.056;2023-03-15T12:30:30;99751.66;;;9.30;47.24
58769;BME280;44536;47.474;19.056;2023-03-15T12:33:48;99736.41;;;9.54;48.17
58769;BME280;44536;47.474;19.056;2023-03-15T12:36:54;99759.78;;;9.38;45.40
58769;BME280;44536;47.474;19.056;2023-03-15T12:49:44;99750.94;;;9.17;45.46
58769;BME280;44536;47.474;19.056;2023-03-15T12:52:47;99753.53;;;9.39;44.64
58769;BME280;44536;47.474;19.056;2023-03-15T12:55:56;99758.44;;;9.55;45.68
58769;BME280;44536;47.474;19.056;2023-03-15T12:59:44;99762.94;;;9.32;44.52
58769;BME280;44536;47.474;19.056;2023-03-15T13:03:02;99758.31;;;9.56;44.01
58769;BME280;44536;47.474;19.056;2023-03-15T13:06:21;99759.22;;;9.35;43.64
58769;BME280;44536;47.474;19.056;2023-03-15T13:09:48;99759.25;;;9.67;43.70
58769;BME280;44536;47.474;19.056;2023-03-15T13:17:04;99785.03;;;10.59;40.20
58769;BME280;44536;47.474;19.056;2023-03-15T13:23:31;99780.75;;;10.05;40.59
58769;BME280;44536;47.474;19.056;2023-03-15T13:26:54;99784.41;;;10.25;40.23
58769;BME280;44536;47.474;19.056;2023-03-15T13:30:06;99792.94;;;10.28;40.40
58769;BME280;44536;47.474;19.056;2023-03-15T13:33:26;99794.56;;;10.20;39.72
58769;BME280;44536;47.474;19.056;2023-03-15T13:36:48;99795.41;;;10.20;39.55
58769;BME280;44536;47.474;19.056;2023-03-15T13:39:59;99811.09;;;10.01;39.82
58769;BME280;44536;47.474;19.056;2023-03-15T13:43:02;99808.75;;;9.87;39.29
58769;BME280;44536;47.474;19.056;2023-03-15T13:46:04;99808.81;;;9.96;40.30
58769;BME280;44536;47.474;19.056;2023-03-15T13:49:10;99804.16;;;9.89;38.85
58769;BME280;44536;47.474;19.056;2023-03-15T13:52:12;99817.47;;;9.67;39.39
58769;BME280;44536;47.474;19.056;2023-03-15T13:55:21;99829.09;;;9.32;39.73
58769;BME280;44536;47.474;19.056;2023-03-15T13:58:24;99815.50;;;9.25;39.96
58769;BME280;44536;47.474;19.056;2023-03-15T14:01:27;99823.09;;;9.19;39.35
58769;BME280;44536;47.474;19.056;2023-03-15T14:04:34;99834.25;;;9.00;39.33
58769;BME280;44536;47.474;19.056;2023-03-15T14:07:40;99839.63;;;8.65;39.57
58769;BME280;44536;47.474;19.056;2023-03-15T14:11:03;99854.31;;;8.69;40.27
58769;BME280;44536;47.474;19.056;2023-03-15T14:17:26;99848.91;;;8.36;40.20
58769;BME280;44536;47.474;19.056;2023-03-15T14:23:41;99868.06;;;8.26;40.03
58769;BME280;44536;47.474;19.056;2023-03-15T14:26:50;99868.91;;;8.03;40.28
58769;BME280;44536;47.474;19.056;2023-03-15T14:29:56;99866.16;;;8.05;40.59
58769;BME280;44536;47.474;19.056;2023-03-15T14:33:02;99876.56;;;8.19;40.15
58769;BME280;44536;47.474;19.056;2023-03-15T14:36:30;99879.13;;;7.84;40.35
58769;BME280;44536;47.474;19.056;2023-03-15T14:42:35;99881.00;;;7.71;40.98
58769;BME280;44536;47.474;19.056;2023-03-15T14:45:39;99891.69;;;7.80;40.76
58769;BME280;44536;47.474;19.056;2023-03-15T14:48:44;99884.69;;;7.68;40.81
58769;BME280;44536;47.474;19.056;2023-03-15T14:51:50;99898.62;;;7.57;41.31
58769;BME280;44536;47.474;19.056;2023-03-15T14:54:54;99889.16;;;7.55;41.14
58769;BME280;44536;47.474;19.056;2023-03-15T14:57:57;99894.75;;;7.50;41.48
58769;BME280;44536;47.474;19.056;2023-03-15T15:01:01;99899.38;;;7.59;41.70
58769;BME280;44536;47.474;19.056;2023-03-15T15:04:03;99898.44;;;7.60;41.07
58769;BME280;44536;47.474;19.056;2023-03-15T15:07:06;99917.03;;;7.46;41.01
58769;BME280;44536;47.474;19.056;2023-03-15T15:10:09;99915.53;;;7.42;41.29
58769;BME280;44536;47.474;19.056;2023-03-15T15:13:16;99929.78;;;7.40;41.28
58769;BME280;44536;47.474;19.056;2023-03-15T15:16:18;99932.44;;;7.40;40.97
58769;BME280;44536;47.474;19.056;2023-03-15T15:19:21;99939.41;;;7.28;40.98
58769;BME280;44536;47.474;19.056;2023-03-15T15:22:23;99944.91;;;7.25;41.36
58769;BME280;44536;47.474;19.056;2023-03-15T15:25:25;99948.03;;;7.30;41.03
58769;BME280;44536;47.474;19.056;2023-03-15T15:28:31;99955.75;;;7.33;41.13
58769;BME280;44536;47.474;19.056;2023-03-15T15:31:39;99969.56;;;7.37;40.65
58769;BME280;44536;47.474;19.056;2023-03-15T15:34:41;99972.34;;;7.22;40.43
58769;BME280;44536;47.474;19.056;2023-03-15T15:37:46;99976.03;;;7.20;40.60
58769;BME280;44536;47.474;19.056;2023-03-15T15:40:49;99971.78;;;7.17;40.83
58769;BME280;44536;47.474;19.056;2023-03-15T15:43:52;99980.88;;;7.26;40.84
58769;BME280;44536;47.474;19.056;2023-03-15T15:46:54;99976.44;;;7.14;41.14
58769;BME280;44536;47.474;19.056;2023-03-15T15:49:57;99988.34;;;7.07;40.23
58769;BME280;44536;47.474;19.056;2023-03-15T15:53:02;99983.72;;;7.10;40.48
58769;BME280;44536;47.474;19.056;2023-03-15T15:56:07;99989.59;;;7.01;40.03
58769;BME280;44536;47.474;19.056;2023-03-15T15:59:15;99996.22;;;6.94;40.08
58769;BME280;44536;47.474;19.056;2023-03-15T16:02:17;99997.28;;;6.91;40.90
58769;BME280;44536;47.474;19.056;2023-03-15T16:05:26;99998.69;;;7.10;40.90
58769;BME280;44536;47.474;19.056;2023-03-15T16:08:33;100003.31;;;7.06;40.60
58769;BME280;44536;47.474;19.056;2023-03-15T16:11:38;100007.97;;;7.15;40.31
58769;BME280;44536;47.474;19.056;2023-03-15T16:14:41;100020.31;;;7.15;40.20
58769;BME280;44536;47.474;19.056;2023-03-15T16:17:45;100027.56;;;7.11;40.45
58769;BME280;44536;47.474;19.056;2023-03-15T16:20:47;100020.09;;;7.18;40.46
58769;BME280;44536;47.474;19.056;2023-03-15T16:23:55;100028.97;;;7.17;40.29
58769;BME280;44536;47.474;19.056;2023-03-15T16:27:02;100028.62;;;7.09;39.62
58769;BME280;44536;47.474;19.056;2023-03-15T16:30:06;100034.09;;;7.06;39.17
58769;BME280;44536;47.474;19.056;2023-03-15T16:33:13;100034.06;;;6.93;39.60
58769;BME280;44536;47.474;19.056;2023-03-15T16:36:20;100050.28;;;6.87;40.60
58769;BME280;44536;47.474;19.056;2023-03-15T16:39:22;100047.94;;;6.82;39.97
58769;BME280;44536;47.474;19.056;2023-03-15T16:42:25;100058.78;;;6.78;39.73
58769;BME280;44536;47.474;19.056;2023-03-15T16:45:27;100057.81;;;6.66;39.89
58769;BME280;44536;47.474;19.056;2023-03-15T16:48:29;100062.72;;;6.58;39.76
58769;BME280;44536;47.474;19.056;2023-03-15T16:51:32;100066.50;;;6.54;40.02
58769;BME280;44536;47.474;19.056;2023-03-15T16:54:35;100077.78;;;6.56;39.93
58769;BME280;44536;47.474;19.056;2023-03-15T16:57:42;100087.69;;;6.52;40.14
58769;BME280;44536;47.474;19.056;2023-03-15T17:00:45;100096.34;;;6.40;40.62
58769;BME280;44536;47.474;19.056;2023-03-15T17:03:49;100102.75;;;6.36;40.51
58769;BME280;44536;47.474;19.056;2023-03-15T17:06:52;100110.19;;;6.29;40.80
58769;BME280;44536;47.474;19.056;2023-03-15T17:09:54;100110.88;;;6.19;41.78
58769;BME280;44536;47.474;19.056;2023-03-15T17:12:59;100108.72;;;6.11;41.37
58769;BME280;44536;47.474;19.056;2023-03-15T17:16:02;100106.53;;;6.04;41.43
58769;BME280;44536;47.474;19.056;2023-03-15T17:19:09;100103.34;;;5.98;41.89
58769;BME280;44536;47.474;19.056;2023-03-15T17:22:14;100106.16;;;5.95;41.46
58769;BME280;44536;47.474;19.056;2023-03-15T17:25:17;100119.59;;;5.91;41.60
58769;BME280;44536;47.474;19.056;2023-03-15T17:28:19;100128.59;;;5.87;41.85